NOZ59S LIRF-ENBR
Flight info
| Callsign | NOZ59S |
|---|---|
| Flight time | 2h 49m |
| Altitude | 34000 |
| Route | SOVAN DCT AMTEL DCT ABREG DCT LOKTA/N0438F350 DCT TEDGO DCT HAREM DCT LOHRE DCT ELNAT/N0441F360 DCT IPSUB DCT BADAB |
| Aircraft | B738/M-SDE2E3FGHIRWXY/LB1 |
Departure
| Time | 2026-05-04 11:29 |
|---|---|
| Airport | Rome–Fiumicino Leonardo da Vinci International Airport (LIRF) |
Arrival
| Time | 2026-05-04 14:18 |
|---|---|
| Airport | Bergen Airport, Flesland (ENBR) |
| Time | Latitude | Longitude | Altitude | Speed | Heading |
|---|---|---|---|---|---|
| 2026-05-04 11:06 | 41.79626 | 12.24653 | 15 ft | 0 kts | 69° |
| 2026-05-04 11:16 | 41.79601 | 12.24577 | 14 ft | 4 kts | 47° |
| 2026-05-04 11:16 | 41.79581 | 12.24558 | 14 ft | 4 kts | 5° |
| 2026-05-04 11:16 | 41.79569 | 12.24559 | 14 ft | 1 kts | 340° |
| 2026-05-04 11:19 | 41.79626 | 12.24530 | 16 ft | 10 kts | 340° |
| 2026-05-04 11:19 | 41.79702 | 12.24493 | 13 ft | 12 kts | 340° |
| 2026-05-04 11:19 | 41.79779 | 12.24454 | 14 ft | 12 kts | 339° |
| 2026-05-04 11:19 | 41.79855 | 12.24416 | 12 ft | 12 kts | 339° |
| 2026-05-04 11:20 | 41.79933 | 12.24375 | 11 ft | 12 kts | 329° |
| 2026-05-04 11:20 | 41.79943 | 12.24273 | 10 ft | 12 kts | 250° |
| 2026-05-04 11:20 | 41.79918 | 12.24163 | 11 ft | 13 kts | 263° |
| 2026-05-04 11:20 | 41.79913 | 12.24039 | 11 ft | 13 kts | 257° |
| 2026-05-04 11:22 | 41.80181 | 12.23539 | 18 ft | 16 kts | 342° |
| 2026-05-04 11:22 | 41.80302 | 12.23488 | 15 ft | 20 kts | 342° |
| 2026-05-04 11:23 | 41.80441 | 12.23430 | 13 ft | 21 kts | 342° |
| 2026-05-04 11:23 | 41.80575 | 12.23374 | 12 ft | 20 kts | 342° |
| 2026-05-04 11:24 | 41.80640 | 12.23345 | 10 ft | 0 kts | 342° |
| 2026-05-04 11:25 | 41.80641 | 12.23345 | 10 ft | 1 kts | 342° |
| 2026-05-04 11:25 | 41.80683 | 12.23328 | 9 ft | 12 kts | 343° |
| 2026-05-04 11:26 | 41.80909 | 12.23234 | 8 ft | 18 kts | 342° |
| 2026-05-04 11:27 | 41.81484 | 12.22704 | 10 ft | 14 kts | 231° |
| 2026-05-04 11:28 | 41.81393 | 12.22705 | 8 ft | 14 kts | 163° |
| 2026-05-04 11:28 | 41.81104 | 12.22828 | 15 ft | 84 kts | 162° |
| 2026-05-04 11:28 | 41.80298 | 12.23164 | 18 ft | 156 kts | 163° |
| 2026-05-04 11:28 | 41.79147 | 12.23642 | 490 ft | 183 kts | 162° |
| 2026-05-04 11:29 | 41.77897 | 12.24167 | 1455 ft | 192 kts | 162° |
| 2026-05-04 11:29 | 41.76603 | 12.24659 | 2456 ft | 195 kts | 176° |
| 2026-05-04 11:29 | 41.75324 | 12.24208 | 3341 ft | 198 kts | 215° |
| 2026-05-04 11:29 | 41.74253 | 12.23008 | 4106 ft | 207 kts | 220° |
| 2026-05-04 11:31 | 41.71477 | 12.10076 | 8275 ft | 286 kts | 336° |
| 2026-05-04 11:33 | 41.80951 | 11.94777 | 11423 ft | 375 kts | 298° |
| 2026-05-04 11:33 | 41.82263 | 11.91727 | 12016 ft | 380 kts | 299° |
| 2026-05-04 11:33 | 41.83641 | 11.88688 | 12699 ft | 383 kts | 306° |
| 2026-05-04 11:34 | 41.85590 | 11.86252 | 13322 ft | 389 kts | 328° |
| 2026-05-04 11:34 | 41.88067 | 11.84911 | 13963 ft | 393 kts | 348° |
| 2026-05-04 11:34 | 41.90796 | 11.84781 | 14583 ft | 397 kts | 8° |
| 2026-05-04 11:34 | 41.93430 | 11.85886 | 15167 ft | 400 kts | 27° |
| 2026-05-04 11:35 | 41.95892 | 11.87649 | 15788 ft | 403 kts | 29° |
| 2026-05-04 11:35 | 41.98355 | 11.89480 | 16332 ft | 407 kts | 29° |
| 2026-05-04 11:35 | 42.00846 | 11.91325 | 16888 ft | 411 kts | 29° |
| 2026-05-04 11:35 | 42.03372 | 11.93171 | 17457 ft | 414 kts | 28° |
| 2026-05-04 11:36 | 42.05920 | 11.95006 | 17991 ft | 417 kts | 28° |
| 2026-05-04 11:36 | 42.08493 | 11.96852 | 18492 ft | 421 kts | 28° |
| 2026-05-04 11:36 | 42.11058 | 11.98692 | 19020 ft | 424 kts | 28° |
| 2026-05-04 11:36 | 42.13666 | 12.00568 | 19560 ft | 427 kts | 28° |
| 2026-05-04 11:37 | 42.16296 | 12.02455 | 20055 ft | 429 kts | 26° |
| 2026-05-04 11:37 | 42.19152 | 12.03585 | 20475 ft | 431 kts | 2° |
| 2026-05-04 11:37 | 42.22124 | 12.03237 | 21009 ft | 429 kts | 347° |
| 2026-05-04 11:37 | 42.25065 | 12.02475 | 21504 ft | 431 kts | 348° |
| 2026-05-04 11:38 | 42.28029 | 12.01780 | 21927 ft | 434 kts | 350° |
| 2026-05-04 11:38 | 42.31025 | 12.01145 | 22334 ft | 437 kts | 350° |
| 2026-05-04 11:38 | 42.33999 | 12.00496 | 22744 ft | 439 kts | 348° |
| 2026-05-04 11:38 | 42.37011 | 11.99784 | 23167 ft | 440 kts | 348° |
| 2026-05-04 11:39 | 42.40038 | 11.99074 | 23565 ft | 443 kts | 348° |
| 2026-05-04 11:39 | 42.43083 | 11.98370 | 23943 ft | 445 kts | 349° |
| 2026-05-04 11:40 | 42.61602 | 11.94179 | 25982 ft | 457 kts | 349° |
| 2026-05-04 11:41 | 42.64747 | 11.93467 | 26293 ft | 459 kts | 348° |
| 2026-05-04 11:41 | 42.67896 | 11.92752 | 26599 ft | 461 kts | 348° |
| 2026-05-04 11:41 | 42.71062 | 11.92033 | 26903 ft | 462 kts | 348° |
| 2026-05-04 11:41 | 42.74242 | 11.91310 | 27191 ft | 464 kts | 348° |
| 2026-05-04 11:42 | 42.77431 | 11.90584 | 27451 ft | 466 kts | 348° |
| 2026-05-04 11:42 | 42.80628 | 11.89852 | 27708 ft | 467 kts | 347° |
| 2026-05-04 11:42 | 42.83743 | 11.88789 | 27955 ft | 467 kts | 339° |
| 2026-05-04 11:42 | 42.86724 | 11.87053 | 28232 ft | 465 kts | 330° |
| 2026-05-04 11:43 | 42.89561 | 11.84950 | 28601 ft | 464 kts | 329° |
| 2026-05-04 11:43 | 42.92383 | 11.82818 | 28994 ft | 462 kts | 329° |
| 2026-05-04 11:43 | 42.95196 | 11.80700 | 29411 ft | 460 kts | 329° |
| 2026-05-04 11:43 | 42.98000 | 11.78607 | 29791 ft | 459 kts | 329° |
| 2026-05-04 11:44 | 43.00797 | 11.76538 | 30112 ft | 458 kts | 329° |
| 2026-05-04 11:44 | 43.03605 | 11.74469 | 30406 ft | 458 kts | 329° |
| 2026-05-04 11:44 | 43.06410 | 11.72407 | 30750 ft | 457 kts | 329° |
| 2026-05-04 11:44 | 43.09169 | 11.70378 | 31091 ft | 456 kts | 329° |
| 2026-05-04 11:45 | 43.11956 | 11.68325 | 31411 ft | 454 kts | 329° |
| 2026-05-04 11:45 | 43.14737 | 11.66273 | 31698 ft | 454 kts | 329° |
| 2026-05-04 11:45 | 43.17517 | 11.64219 | 31998 ft | 454 kts | 329° |
| 2026-05-04 11:45 | 43.20288 | 11.62171 | 32314 ft | 452 kts | 329° |
| 2026-05-04 11:46 | 43.23067 | 11.60159 | 32615 ft | 451 kts | 331° |
| 2026-05-04 11:46 | 43.25896 | 11.58288 | 32881 ft | 452 kts | 332° |
| 2026-05-04 11:46 | 43.28751 | 11.56497 | 33150 ft | 451 kts | 333° |
| 2026-05-04 11:46 | 43.31575 | 11.54758 | 33439 ft | 450 kts | 333° |
| 2026-05-04 11:47 | 43.34430 | 11.53002 | 33724 ft | 449 kts | 333° |
| 2026-05-04 11:47 | 43.37269 | 11.51244 | 33982 ft | 448 kts | 333° |
| 2026-05-04 11:47 | 43.40105 | 11.49473 | 34146 ft | 450 kts | 333° |
| 2026-05-04 11:48 | 43.45828 | 11.45864 | 34133 ft | 453 kts | 333° |
| 2026-05-04 11:48 | 43.51522 | 11.42254 | 34127 ft | 447 kts | 333° |
| 2026-05-04 11:49 | 43.57120 | 11.38692 | 34128 ft | 445 kts | 333° |
| 2026-05-04 11:49 | 43.62730 | 11.35114 | 34130 ft | 443 kts | 333° |
| 2026-05-04 11:50 | 43.68324 | 11.31540 | 34133 ft | 443 kts | 333° |
| 2026-05-04 11:50 | 43.73924 | 11.27955 | 34129 ft | 444 kts | 333° |
| 2026-05-04 11:51 | 43.79537 | 11.24356 | 34133 ft | 445 kts | 332° |
| 2026-05-04 11:51 | 43.85130 | 11.20761 | 34136 ft | 447 kts | 333° |
| 2026-05-04 11:52 | 43.90780 | 11.17123 | 34131 ft | 449 kts | 333° |
| 2026-05-04 11:52 | 43.96441 | 11.13469 | 34145 ft | 450 kts | 333° |
| 2026-05-04 11:53 | 44.02125 | 11.09792 | 34148 ft | 451 kts | 333° |
| 2026-05-04 11:53 | 44.07773 | 11.06133 | 34167 ft | 452 kts | 333° |
| 2026-05-04 11:55 | 44.30569 | 10.91283 | 34215 ft | 454 kts | 333° |
| 2026-05-04 11:56 | 44.36299 | 10.87526 | 34211 ft | 455 kts | 333° |
| 2026-05-04 11:56 | 44.42033 | 10.83762 | 34201 ft | 455 kts | 333° |
| 2026-05-04 11:57 | 44.47765 | 10.79994 | 34198 ft | 455 kts | 333° |
| 2026-05-04 11:57 | 44.53496 | 10.76214 | 34177 ft | 455 kts | 333° |
| 2026-05-04 11:58 | 44.59188 | 10.72452 | 34158 ft | 455 kts | 333° |
| 2026-05-04 11:58 | 44.64924 | 10.68652 | 34150 ft | 456 kts | 333° |
| 2026-05-04 11:59 | 44.70653 | 10.64851 | 34138 ft | 455 kts | 332° |
| 2026-05-04 11:59 | 44.76363 | 10.61055 | 34133 ft | 454 kts | 332° |
| 2026-05-04 12:00 | 44.82080 | 10.57244 | 34123 ft | 454 kts | 332° |
| 2026-05-04 12:00 | 44.87750 | 10.53455 | 34113 ft | 454 kts | 332° |
| 2026-05-04 12:01 | 44.93455 | 10.49634 | 34111 ft | 454 kts | 332° |
| 2026-05-04 12:02 | 45.13380 | 10.36227 | 34096 ft | 455 kts | 332° |
| 2026-05-04 12:03 | 45.19092 | 10.32366 | 34096 ft | 455 kts | 332° |
| 2026-05-04 12:03 | 45.24801 | 10.28497 | 34096 ft | 455 kts | 332° |
| 2026-05-04 12:04 | 45.30480 | 10.24638 | 34098 ft | 456 kts | 332° |
| 2026-05-04 12:04 | 45.36186 | 10.20752 | 34101 ft | 456 kts | 332° |
| 2026-05-04 12:05 | 45.41909 | 10.16846 | 34101 ft | 457 kts | 332° |
| 2026-05-04 12:05 | 45.47646 | 10.12923 | 34106 ft | 458 kts | 332° |
| 2026-05-04 12:06 | 45.53389 | 10.08986 | 34097 ft | 458 kts | 332° |
| 2026-05-04 12:06 | 45.59085 | 10.05074 | 34107 ft | 458 kts | 331° |
| 2026-05-04 12:07 | 45.64823 | 10.01123 | 34111 ft | 458 kts | 331° |
| 2026-05-04 12:07 | 45.70562 | 9.97164 | 34113 ft | 458 kts | 332° |
| 2026-05-04 12:08 | 45.76312 | 9.93186 | 34115 ft | 459 kts | 332° |
| 2026-05-04 12:08 | 45.82026 | 9.89223 | 34111 ft | 460 kts | 332° |
| 2026-05-04 12:09 | 45.87793 | 9.85215 | 34106 ft | 461 kts | 332° |
| 2026-05-04 12:09 | 45.93562 | 9.81197 | 34114 ft | 461 kts | 332° |
| 2026-05-04 12:10 | 45.99333 | 9.77167 | 34110 ft | 462 kts | 332° |
| 2026-05-04 12:10 | 46.05109 | 9.73126 | 34116 ft | 462 kts | 332° |
| 2026-05-04 12:11 | 46.10857 | 9.69094 | 34118 ft | 462 kts | 332° |
| 2026-05-04 12:11 | 46.16628 | 9.65036 | 34116 ft | 461 kts | 332° |
| 2026-05-04 12:12 | 46.22392 | 9.60973 | 34130 ft | 461 kts | 331° |
| 2026-05-04 12:12 | 46.28153 | 9.56908 | 34128 ft | 461 kts | 332° |
| 2026-05-04 12:14 | 46.53533 | 9.50721 | 34137 ft | 466 kts | 350° |
| 2026-05-04 12:15 | 46.59966 | 9.49490 | 34135 ft | 466 kts | 350° |
| 2026-05-04 12:15 | 46.66363 | 9.48248 | 34135 ft | 467 kts | 350° |
| 2026-05-04 12:16 | 46.72817 | 9.46993 | 34130 ft | 468 kts | 350° |
| 2026-05-04 12:16 | 46.79285 | 9.45734 | 34114 ft | 470 kts | 349° |
| 2026-05-04 12:17 | 46.85774 | 9.44472 | 34105 ft | 470 kts | 349° |
| 2026-05-04 12:17 | 46.92225 | 9.43213 | 34085 ft | 471 kts | 349° |
| 2026-05-04 12:18 | 46.98712 | 9.41945 | 34071 ft | 470 kts | 349° |
| 2026-05-04 12:18 | 47.05191 | 9.40674 | 34056 ft | 470 kts | 349° |
| 2026-05-04 12:19 | 47.11678 | 9.39398 | 34022 ft | 471 kts | 349° |
| 2026-05-04 12:19 | 47.18175 | 9.38116 | 34019 ft | 471 kts | 349° |
| 2026-05-04 12:20 | 47.24624 | 9.36843 | 34021 ft | 471 kts | 349° |
| 2026-05-04 12:20 | 47.31127 | 9.35555 | 34009 ft | 471 kts | 349° |
| 2026-05-04 12:21 | 47.37617 | 9.34267 | 33998 ft | 471 kts | 349° |
| 2026-05-04 12:21 | 47.44102 | 9.32976 | 34006 ft | 470 kts | 349° |
| 2026-05-04 12:22 | 47.50587 | 9.31685 | 33995 ft | 469 kts | 349° |
| 2026-05-04 12:22 | 47.57013 | 9.30398 | 33993 ft | 470 kts | 349° |
| 2026-05-04 12:23 | 47.63496 | 9.29096 | 33990 ft | 470 kts | 349° |
| 2026-05-04 12:23 | 47.69978 | 9.27792 | 33993 ft | 470 kts | 349° |
| 2026-05-04 12:24 | 47.76466 | 9.26485 | 33992 ft | 471 kts | 349° |
| 2026-05-04 12:24 | 47.82915 | 9.25182 | 33989 ft | 471 kts | 349° |
| 2026-05-04 12:25 | 47.89412 | 9.23864 | 33989 ft | 471 kts | 349° |
| 2026-05-04 12:25 | 47.95909 | 9.22546 | 33989 ft | 472 kts | 349° |
| 2026-05-04 12:26 | 48.02416 | 9.21221 | 33991 ft | 472 kts | 348° |
| 2026-05-04 12:26 | 48.08874 | 9.19903 | 34002 ft | 472 kts | 348° |
| 2026-05-04 12:27 | 48.15380 | 9.18597 | 33994 ft | 473 kts | 351° |
| 2026-05-04 12:27 | 48.21998 | 9.18951 | 33992 ft | 479 kts | 4° |
| 2026-05-04 12:28 | 48.28617 | 9.20201 | 33990 ft | 479 kts | 4° |
| 2026-05-04 12:28 | 48.35192 | 9.21398 | 33994 ft | 479 kts | 4° |
| 2026-05-04 12:29 | 48.41813 | 9.22524 | 33993 ft | 479 kts | 3° |
| 2026-05-04 12:29 | 48.48437 | 9.23635 | 33995 ft | 479 kts | 3° |
| 2026-05-04 12:30 | 48.55059 | 9.24754 | 33986 ft | 479 kts | 3° |
| 2026-05-04 12:30 | 48.61688 | 9.25880 | 33992 ft | 479 kts | 3° |
| 2026-05-04 12:31 | 48.68262 | 9.26922 | 33993 ft | 479 kts | 2° |
| 2026-05-04 12:31 | 48.74890 | 9.27913 | 33986 ft | 478 kts | 2° |
| 2026-05-04 12:32 | 48.84821 | 9.29410 | 33989 ft | 479 kts | 2° |
| 2026-05-04 12:33 | 48.91449 | 9.30427 | 33993 ft | 479 kts | 2° |
| 2026-05-04 12:33 | 48.98035 | 9.31442 | 33991 ft | 479 kts | 2° |
| 2026-05-04 12:34 | 49.04664 | 9.32466 | 33992 ft | 479 kts | 2° |
| 2026-05-04 12:34 | 49.11292 | 9.33491 | 33994 ft | 479 kts | 2° |
| 2026-05-04 12:35 | 49.17918 | 9.34519 | 33992 ft | 479 kts | 2° |
| 2026-05-04 12:35 | 49.24547 | 9.35550 | 33997 ft | 479 kts | 2° |
| 2026-05-04 12:36 | 49.31134 | 9.36578 | 33999 ft | 479 kts | 2° |
| 2026-05-04 12:36 | 49.37759 | 9.37616 | 34002 ft | 479 kts | 2° |
| 2026-05-04 12:37 | 49.44381 | 9.38654 | 33991 ft | 479 kts | 2° |
| 2026-05-04 12:37 | 49.51008 | 9.39696 | 33990 ft | 478 kts | 2° |
| 2026-05-04 12:38 | 49.57632 | 9.40740 | 33992 ft | 478 kts | 2° |
| 2026-05-04 12:38 | 49.64214 | 9.41782 | 33991 ft | 479 kts | 2° |
| 2026-05-04 12:39 | 49.70839 | 9.42837 | 33992 ft | 478 kts | 2° |
| 2026-05-04 12:39 | 49.77459 | 9.43897 | 33987 ft | 478 kts | 2° |
| 2026-05-04 12:40 | 49.84071 | 9.44954 | 33988 ft | 478 kts | 2° |
| 2026-05-04 12:40 | 49.90680 | 9.46015 | 33994 ft | 477 kts | 2° |
| 2026-05-04 12:41 | 49.97241 | 9.47071 | 33991 ft | 477 kts | 2° |
| 2026-05-04 12:41 | 50.03846 | 9.48137 | 33983 ft | 477 kts | 2° |
| 2026-05-04 12:42 | 50.10452 | 9.49232 | 33995 ft | 478 kts | 2° |
| 2026-05-04 12:42 | 50.17074 | 9.50407 | 33993 ft | 479 kts | 3° |
| 2026-05-04 12:43 | 50.23693 | 9.51595 | 33992 ft | 479 kts | 3° |
| 2026-05-04 12:43 | 50.30282 | 9.52770 | 33993 ft | 480 kts | 3° |
| 2026-05-04 12:44 | 50.36912 | 9.53949 | 33994 ft | 480 kts | 3° |
| 2026-05-04 12:44 | 50.43548 | 9.55133 | 33982 ft | 480 kts | 2° |
| 2026-05-04 12:45 | 50.50194 | 9.56323 | 33979 ft | 481 kts | 2° |
| 2026-05-04 12:45 | 50.56791 | 9.57507 | 33980 ft | 480 kts | 2° |
| 2026-05-04 12:46 | 50.63428 | 9.58701 | 33977 ft | 480 kts | 2° |
| 2026-05-04 12:46 | 50.70063 | 9.59899 | 33988 ft | 480 kts | 2° |
| 2026-05-04 12:47 | 50.76704 | 9.61102 | 33979 ft | 480 kts | 2° |
| 2026-05-04 12:47 | 50.83303 | 9.62300 | 33968 ft | 481 kts | 2° |
| 2026-05-04 12:48 | 50.89952 | 9.63511 | 33975 ft | 481 kts | 2° |
| 2026-05-04 12:48 | 50.96596 | 9.64723 | 33970 ft | 481 kts | 2° |
| 2026-05-04 12:49 | 51.03244 | 9.65941 | 33968 ft | 481 kts | 2° |
| 2026-05-04 12:49 | 51.09905 | 9.67165 | 33978 ft | 482 kts | 2° |
| 2026-05-04 12:50 | 51.16526 | 9.68382 | 33972 ft | 482 kts | 1° |
| 2026-05-04 12:50 | 51.23137 | 9.68097 | 33972 ft | 470 kts | 343° |
| 2026-05-04 12:51 | 51.29422 | 9.65506 | 33980 ft | 466 kts | 339° |
| 2026-05-04 12:51 | 51.35683 | 9.62756 | 33978 ft | 467 kts | 339° |
| 2026-05-04 12:52 | 51.41960 | 9.60051 | 33971 ft | 468 kts | 339° |
| 2026-05-04 12:52 | 51.48215 | 9.57394 | 33972 ft | 468 kts | 339° |
| 2026-05-04 12:53 | 51.54515 | 9.54726 | 33966 ft | 468 kts | 339° |
| 2026-05-04 12:53 | 51.60814 | 9.52053 | 33975 ft | 468 kts | 339° |
| 2026-05-04 12:54 | 51.67072 | 9.49384 | 33977 ft | 469 kts | 339° |
| 2026-05-04 12:54 | 51.73373 | 9.46689 | 33971 ft | 469 kts | 339° |
| 2026-05-04 12:55 | 51.79678 | 9.43987 | 33973 ft | 468 kts | 339° |
| 2026-05-04 12:55 | 51.85980 | 9.41276 | 33967 ft | 468 kts | 339° |
| 2026-05-04 12:56 | 51.92273 | 9.38561 | 33972 ft | 468 kts | 339° |
| 2026-05-04 12:56 | 51.98524 | 9.35857 | 33969 ft | 468 kts | 339° |
| 2026-05-04 12:57 | 52.04817 | 9.33126 | 33965 ft | 468 kts | 339° |
| 2026-05-04 12:57 | 52.11106 | 9.30390 | 33968 ft | 467 kts | 339° |
| 2026-05-04 12:58 | 52.17385 | 9.27650 | 33966 ft | 467 kts | 339° |
| 2026-05-04 12:58 | 52.22605 | 9.25364 | 33963 ft | 467 kts | 339° |
| 2026-05-04 12:59 | 52.29903 | 9.22162 | 33961 ft | 467 kts | 338° |
| 2026-05-04 12:59 | 52.36181 | 9.19399 | 33962 ft | 467 kts | 338° |
| 2026-05-04 13:00 | 52.41388 | 9.17101 | 33966 ft | 467 kts | 338° |
| 2026-05-04 13:00 | 52.47660 | 9.14325 | 33970 ft | 466 kts | 338° |
| 2026-05-04 13:01 | 52.53919 | 9.11546 | 33974 ft | 466 kts | 338° |
| 2026-05-04 13:01 | 52.61197 | 9.08302 | 33970 ft | 466 kts | 338° |
| 2026-05-04 13:02 | 52.66402 | 9.05977 | 33974 ft | 466 kts | 338° |
| 2026-05-04 13:02 | 52.72662 | 9.03174 | 33979 ft | 466 kts | 338° |
| 2026-05-04 13:03 | 52.78923 | 9.00361 | 33991 ft | 466 kts | 338° |
| 2026-05-04 13:03 | 52.85186 | 8.97540 | 33991 ft | 466 kts | 338° |
| 2026-05-04 13:04 | 52.91445 | 8.94712 | 33990 ft | 466 kts | 338° |
| 2026-05-04 13:04 | 52.97669 | 8.91890 | 33991 ft | 466 kts | 338° |
| 2026-05-04 13:05 | 53.03931 | 8.89043 | 33992 ft | 467 kts | 338° |
| 2026-05-04 13:05 | 53.10195 | 8.86187 | 33992 ft | 467 kts | 338° |
| 2026-05-04 13:06 | 53.16454 | 8.83324 | 33991 ft | 466 kts | 338° |
| 2026-05-04 13:06 | 53.22667 | 8.80474 | 33991 ft | 466 kts | 338° |
| 2026-05-04 13:07 | 53.28912 | 8.77600 | 33997 ft | 465 kts | 338° |
| 2026-05-04 13:07 | 53.35146 | 8.74722 | 34003 ft | 465 kts | 338° |
| 2026-05-04 13:08 | 53.41380 | 8.71837 | 34001 ft | 465 kts | 338° |
| 2026-05-04 13:08 | 53.47571 | 8.68961 | 34007 ft | 464 kts | 338° |
| 2026-05-04 13:09 | 53.53786 | 8.66065 | 34013 ft | 464 kts | 338° |
| 2026-05-04 13:09 | 53.60014 | 8.63155 | 34012 ft | 464 kts | 338° |
| 2026-05-04 13:10 | 53.66242 | 8.60237 | 34021 ft | 464 kts | 338° |
| 2026-05-04 13:10 | 53.72465 | 8.57312 | 34016 ft | 464 kts | 338° |
| 2026-05-04 13:11 | 53.78636 | 8.54404 | 34020 ft | 464 kts | 337° |
| 2026-05-04 13:11 | 53.84842 | 8.51469 | 34019 ft | 463 kts | 337° |
| 2026-05-04 13:12 | 53.91046 | 8.48523 | 34017 ft | 463 kts | 337° |
| 2026-05-04 13:12 | 53.97238 | 8.45576 | 34024 ft | 462 kts | 337° |
| 2026-05-04 13:13 | 54.03381 | 8.42644 | 34023 ft | 461 kts | 337° |
| 2026-05-04 13:13 | 54.09559 | 8.39689 | 34015 ft | 461 kts | 337° |
| 2026-05-04 13:14 | 54.15727 | 8.36728 | 34017 ft | 460 kts | 337° |
| 2026-05-04 13:14 | 54.21888 | 8.33760 | 34021 ft | 460 kts | 337° |
| 2026-05-04 13:15 | 54.28005 | 8.30801 | 34015 ft | 459 kts | 337° |
| 2026-05-04 13:15 | 54.34156 | 8.27817 | 34016 ft | 459 kts | 337° |
| 2026-05-04 13:16 | 54.40305 | 8.24826 | 34019 ft | 459 kts | 337° |
| 2026-05-04 13:16 | 54.46451 | 8.21828 | 34022 ft | 459 kts | 337° |
| 2026-05-04 13:17 | 54.52598 | 8.18819 | 34018 ft | 459 kts | 337° |
| 2026-05-04 13:17 | 54.58698 | 8.15826 | 34020 ft | 459 kts | 338° |
| 2026-05-04 13:18 | 54.64846 | 8.12800 | 34020 ft | 459 kts | 338° |
| 2026-05-04 13:18 | 54.70990 | 8.09764 | 34016 ft | 459 kts | 338° |
| 2026-05-04 13:19 | 54.77129 | 8.06721 | 34018 ft | 459 kts | 338° |
| 2026-05-04 13:19 | 54.83262 | 8.03673 | 34016 ft | 458 kts | 338° |
| 2026-05-04 13:20 | 54.89340 | 8.00642 | 34018 ft | 457 kts | 338° |
| 2026-05-04 13:20 | 54.95438 | 7.97590 | 34025 ft | 455 kts | 339° |
| 2026-05-04 13:21 | 55.01521 | 7.94560 | 34014 ft | 455 kts | 340° |
| 2026-05-04 13:21 | 55.07657 | 7.91897 | 34013 ft | 454 kts | 342° |
| 2026-05-04 13:22 | 55.13755 | 7.89390 | 34019 ft | 453 kts | 342° |
| 2026-05-04 13:22 | 55.19871 | 7.86832 | 34022 ft | 451 kts | 342° |
| 2026-05-04 13:23 | 55.25962 | 7.84236 | 34008 ft | 450 kts | 342° |
| 2026-05-04 13:23 | 55.32033 | 7.81626 | 34004 ft | 448 kts | 342° |
| 2026-05-04 13:24 | 55.38037 | 7.79036 | 34006 ft | 447 kts | 342° |
| 2026-05-04 13:24 | 55.44062 | 7.76430 | 34008 ft | 446 kts | 342° |
| 2026-05-04 13:25 | 55.53083 | 7.72509 | 34009 ft | 445 kts | 342° |
| 2026-05-04 13:25 | 55.59088 | 7.69891 | 33995 ft | 445 kts | 342° |
| 2026-05-04 13:26 | 55.65059 | 7.67280 | 33991 ft | 445 kts | 342° |
| 2026-05-04 13:26 | 55.71062 | 7.64648 | 33988 ft | 444 kts | 342° |
| 2026-05-04 13:27 | 55.77069 | 7.62001 | 33991 ft | 444 kts | 342° |
| 2026-05-04 13:27 | 55.83060 | 7.59356 | 33990 ft | 444 kts | 342° |
| 2026-05-04 13:28 | 55.89019 | 7.56716 | 33987 ft | 444 kts | 342° |
| 2026-05-04 13:28 | 55.95025 | 7.54047 | 33981 ft | 445 kts | 342° |
| 2026-05-04 13:29 | 56.01030 | 7.51368 | 33980 ft | 445 kts | 342° |
| 2026-05-04 13:29 | 56.07038 | 7.48679 | 33984 ft | 445 kts | 342° |
| 2026-05-04 13:30 | 56.13005 | 7.46002 | 33982 ft | 445 kts | 342° |
| 2026-05-04 13:30 | 56.19001 | 7.43303 | 33979 ft | 444 kts | 342° |
| 2026-05-04 13:31 | 56.24984 | 7.40602 | 33982 ft | 443 kts | 342° |
| 2026-05-04 13:31 | 56.30952 | 7.37898 | 33980 ft | 442 kts | 342° |
| 2026-05-04 13:32 | 56.36875 | 7.35204 | 33970 ft | 441 kts | 342° |
| 2026-05-04 13:32 | 56.42825 | 7.32488 | 33966 ft | 441 kts | 342° |
| 2026-05-04 13:33 | 56.48765 | 7.29770 | 33962 ft | 440 kts | 342° |
| 2026-05-04 13:33 | 56.54695 | 7.27051 | 33963 ft | 439 kts | 342° |
| 2026-05-04 13:34 | 56.60612 | 7.24329 | 33960 ft | 438 kts | 342° |
| 2026-05-04 13:34 | 56.66483 | 7.21616 | 33957 ft | 438 kts | 342° |
| 2026-05-04 13:35 | 56.75325 | 7.17517 | 33944 ft | 437 kts | 342° |
| 2026-05-04 13:36 | 56.81215 | 7.14775 | 33943 ft | 436 kts | 342° |
| 2026-05-04 13:36 | 56.87058 | 7.12045 | 33932 ft | 436 kts | 342° |
| 2026-05-04 13:37 | 56.92929 | 7.09294 | 33935 ft | 436 kts | 342° |
| 2026-05-04 13:37 | 56.98803 | 7.06532 | 33932 ft | 436 kts | 342° |
| 2026-05-04 13:38 | 57.04668 | 7.03765 | 33924 ft | 435 kts | 342° |
| 2026-05-04 13:38 | 57.10529 | 7.00991 | 33927 ft | 434 kts | 341° |
| 2026-05-04 13:39 | 57.16340 | 6.98232 | 33917 ft | 434 kts | 341° |
| 2026-05-04 13:39 | 57.22188 | 6.95446 | 33917 ft | 434 kts | 341° |
| 2026-05-04 13:40 | 57.28027 | 6.92655 | 33909 ft | 434 kts | 341° |
| 2026-05-04 13:40 | 57.33865 | 6.89856 | 33908 ft | 433 kts | 341° |
| 2026-05-04 13:41 | 57.39661 | 6.87067 | 33909 ft | 433 kts | 341° |
| 2026-05-04 13:41 | 57.45485 | 6.84255 | 33906 ft | 432 kts | 341° |
| 2026-05-04 13:42 | 57.54206 | 6.80031 | 33899 ft | 432 kts | 341° |
| 2026-05-04 13:42 | 57.59973 | 6.77223 | 33897 ft | 431 kts | 341° |
| 2026-05-04 13:43 | 57.65779 | 6.74388 | 33899 ft | 431 kts | 341° |
| 2026-05-04 13:43 | 57.71574 | 6.71549 | 33896 ft | 430 kts | 340° |
| 2026-05-04 13:44 | 57.77368 | 6.68702 | 33891 ft | 430 kts | 340° |
| 2026-05-04 13:44 | 57.83157 | 6.65847 | 33895 ft | 430 kts | 340° |
| 2026-05-04 13:45 | 57.88908 | 6.63002 | 33883 ft | 429 kts | 340° |
| 2026-05-04 13:45 | 57.94678 | 6.60140 | 33885 ft | 428 kts | 340° |
| 2026-05-04 13:46 | 58.00427 | 6.57276 | 33891 ft | 427 kts | 340° |
| 2026-05-04 13:46 | 58.06168 | 6.54407 | 33890 ft | 426 kts | 340° |
| 2026-05-04 13:47 | 58.11861 | 6.51548 | 33890 ft | 425 kts | 339° |
| 2026-05-04 13:47 | 58.17568 | 6.48679 | 33892 ft | 424 kts | 339° |
| 2026-05-04 13:48 | 58.23273 | 6.45801 | 33899 ft | 423 kts | 339° |
| 2026-05-04 13:48 | 58.28965 | 6.42919 | 33888 ft | 424 kts | 339° |
| 2026-05-04 13:49 | 58.34665 | 6.40022 | 33893 ft | 424 kts | 339° |
| 2026-05-04 13:49 | 58.40334 | 6.37132 | 33894 ft | 425 kts | 339° |
| 2026-05-04 13:50 | 58.46050 | 6.34207 | 33907 ft | 426 kts | 339° |
| 2026-05-04 13:50 | 58.51772 | 6.31271 | 33907 ft | 426 kts | 339° |
| 2026-05-04 13:51 | 58.57497 | 6.28320 | 33904 ft | 426 kts | 339° |
| 2026-05-04 13:51 | 58.63195 | 6.25376 | 33889 ft | 427 kts | 339° |
| 2026-05-04 13:52 | 58.68995 | 6.22365 | 32690 ft | 432 kts | 339° |
| 2026-05-04 13:52 | 58.71896 | 6.20858 | 32023 ft | 431 kts | 339° |
| 2026-05-04 13:52 | 58.74790 | 6.19355 | 31282 ft | 431 kts | 339° |
| 2026-05-04 13:53 | 58.77681 | 6.17850 | 30551 ft | 430 kts | 339° |
| 2026-05-04 13:53 | 58.80550 | 6.16354 | 30019 ft | 424 kts | 339° |
| 2026-05-04 13:53 | 58.83384 | 6.14876 | 29452 ft | 418 kts | 338° |
| 2026-05-04 13:54 | 58.88886 | 6.11995 | 28394 ft | 407 kts | 338° |
| 2026-05-04 13:54 | 58.91604 | 6.10564 | 27873 ft | 402 kts | 338° |
| 2026-05-04 13:54 | 58.96948 | 6.07742 | 26846 ft | 393 kts | 337° |
| 2026-05-04 13:55 | 58.99575 | 6.06352 | 26316 ft | 390 kts | 337° |
| 2026-05-04 13:55 | 59.04763 | 6.03599 | 25300 ft | 383 kts | 336° |
| 2026-05-04 13:55 | 59.07292 | 6.02262 | 24809 ft | 381 kts | 337° |
| 2026-05-04 13:56 | 59.09873 | 6.01116 | 24303 ft | 381 kts | 340° |
| 2026-05-04 13:56 | 59.12470 | 6.00140 | 23822 ft | 379 kts | 340° |
| 2026-05-04 13:56 | 59.17610 | 5.98292 | 22837 ft | 372 kts | 340° |
| 2026-05-04 13:57 | 59.20144 | 5.97359 | 22351 ft | 369 kts | 340° |
| 2026-05-04 13:57 | 59.22651 | 5.96421 | 21866 ft | 366 kts | 339° |
| 2026-05-04 13:58 | 59.30026 | 5.93604 | 20436 ft | 358 kts | 338° |
| 2026-05-04 13:58 | 59.34892 | 5.91727 | 19481 ft | 354 kts | 338° |
| 2026-05-04 13:58 | 59.37305 | 5.90797 | 19005 ft | 353 kts | 338° |
| 2026-05-04 13:59 | 59.39706 | 5.89869 | 18529 ft | 351 kts | 338° |
| 2026-05-04 13:59 | 59.42096 | 5.88945 | 18054 ft | 349 kts | 338° |
| 2026-05-04 13:59 | 59.46968 | 5.87654 | 16957 ft | 359 kts | 345° |
| 2026-05-04 14:00 | 59.49421 | 5.87318 | 16485 ft | 357 kts | 345° |
| 2026-05-04 14:00 | 59.54368 | 5.86638 | 15540 ft | 355 kts | 345° |
| 2026-05-04 14:00 | 59.56822 | 5.86266 | 15080 ft | 352 kts | 345° |
| 2026-05-04 14:01 | 59.59255 | 5.85880 | 14634 ft | 349 kts | 345° |
| 2026-05-04 14:01 | 59.61660 | 5.85484 | 14193 ft | 346 kts | 346° |
| 2026-05-04 14:01 | 59.66413 | 5.84707 | 13295 ft | 339 kts | 346° |
| 2026-05-04 14:02 | 59.68724 | 5.84324 | 12875 ft | 337 kts | 346° |
| 2026-05-04 14:02 | 59.71055 | 5.83936 | 12451 ft | 336 kts | 346° |
| 2026-05-04 14:02 | 59.73378 | 5.83552 | 12000 ft | 334 kts | 347° |
| 2026-05-04 14:02 | 59.75687 | 5.83171 | 11564 ft | 332 kts | 347° |
| 2026-05-04 14:03 | 59.77980 | 5.82792 | 11137 ft | 330 kts | 347° |
| 2026-05-04 14:03 | 59.80257 | 5.82415 | 10745 ft | 327 kts | 348° |
| 2026-05-04 14:03 | 59.82492 | 5.82148 | 10600 ft | 320 kts | 355° |
| 2026-05-04 14:03 | 59.84691 | 5.82796 | 10464 ft | 316 kts | 5° |
| 2026-05-04 14:04 | 59.88858 | 5.84556 | 10196 ft | 301 kts | 5° |
| 2026-05-04 14:04 | 59.90892 | 5.85378 | 10080 ft | 295 kts | 4° |
| 2026-05-04 14:04 | 59.92894 | 5.86150 | 9921 ft | 290 kts | 4° |
| 2026-05-04 14:05 | 59.96795 | 5.87644 | 9465 ft | 284 kts | 4° |
| 2026-05-04 14:05 | 59.98727 | 5.88379 | 9182 ft | 282 kts | 5° |
| 2026-05-04 14:05 | 60.00653 | 5.89114 | 8926 ft | 281 kts | 5° |
| 2026-05-04 14:06 | 60.02549 | 5.89447 | 8806 ft | 273 kts | 346° |
| 2026-05-04 14:06 | 60.04269 | 5.88099 | 8395 ft | 263 kts | 316° |
| 2026-05-04 14:06 | 60.05458 | 5.85471 | 8210 ft | 249 kts | 297° |
| 2026-05-04 14:06 | 60.06083 | 5.82340 | 8064 ft | 237 kts | 279° |
| 2026-05-04 14:07 | 60.06344 | 5.79096 | 7946 ft | 236 kts | 269° |
| 2026-05-04 14:07 | 60.05951 | 5.75993 | 7876 ft | 230 kts | 239° |
| 2026-05-04 14:07 | 60.04925 | 5.73608 | 7853 ft | 225 kts | 220° |
| 2026-05-04 14:07 | 60.03575 | 5.72143 | 7850 ft | 217 kts | 205° |
| 2026-05-04 14:08 | 60.02132 | 5.71069 | 7392 ft | 230 kts | 202° |
| 2026-05-04 14:08 | 60.00701 | 5.69750 | 7105 ft | 226 kts | 221° |
| 2026-05-04 14:08 | 59.99564 | 5.67732 | 7033 ft | 221 kts | 223° |
| 2026-05-04 14:08 | 59.98384 | 5.65730 | 6844 ft | 224 kts | 222° |
| 2026-05-04 14:09 | 59.96277 | 5.61205 | 6492 ft | 225 kts | 243° |
| 2026-05-04 14:09 | 59.95550 | 5.58436 | 6295 ft | 226 kts | 243° |
| 2026-05-04 14:10 | 59.95513 | 5.52426 | 5894 ft | 231 kts | 298° |
| 2026-05-04 14:10 | 59.96614 | 5.50074 | 5698 ft | 236 kts | 324° |
| 2026-05-04 14:10 | 59.98106 | 5.48759 | 5503 ft | 240 kts | 338° |
| 2026-05-04 14:10 | 59.99707 | 5.47774 | 5294 ft | 241 kts | 340° |
| 2026-05-04 14:11 | 60.01315 | 5.46823 | 5081 ft | 241 kts | 340° |
| 2026-05-04 14:11 | 60.04498 | 5.44888 | 4636 ft | 236 kts | 340° |
| 2026-05-04 14:11 | 60.06059 | 5.43920 | 4440 ft | 233 kts | 339° |
| 2026-05-04 14:12 | 60.07606 | 5.42960 | 4239 ft | 232 kts | 339° |
| 2026-05-04 14:12 | 60.09024 | 5.41588 | 4027 ft | 222 kts | 313° |
| 2026-05-04 14:12 | 60.10108 | 5.36423 | 3710 ft | 194 kts | 278° |
| 2026-05-04 14:13 | 60.10341 | 5.33828 | 3537 ft | 185 kts | 278° |
| 2026-05-04 14:13 | 60.10568 | 5.31346 | 3365 ft | 177 kts | 277° |
| 2026-05-04 14:13 | 60.11031 | 5.29135 | 3178 ft | 172 kts | 311° |
| 2026-05-04 14:13 | 60.12026 | 5.27919 | 3086 ft | 170 kts | 340° |
| 2026-05-04 14:14 | 60.13176 | 5.27314 | 3054 ft | 173 kts | 343° |
| 2026-05-04 14:14 | 60.15541 | 5.26446 | 2740 ft | 170 kts | 347° |
| 2026-05-04 14:14 | 60.16681 | 5.26067 | 2494 ft | 163 kts | 347° |
| 2026-05-04 14:15 | 60.18877 | 5.25331 | 2078 ft | 159 kts | 347° |
| 2026-05-04 14:15 | 60.21024 | 5.24612 | 1665 ft | 151 kts | 348° |
| 2026-05-04 14:16 | 60.22972 | 5.23966 | 1276 ft | 135 kts | 348° |
| 2026-05-04 14:16 | 60.23899 | 5.23648 | 1104 ft | 135 kts | 348° |
| 2026-05-04 14:17 | 60.25746 | 5.23030 | 746 ft | 136 kts | 348° |
| 2026-05-04 14:17 | 60.26686 | 5.22710 | 507 ft | 137 kts | 350° |
| 2026-05-04 14:17 | 60.28502 | 5.22104 | 176 ft | 128 kts | 349° |
| 2026-05-04 14:18 | 60.29305 | 5.21824 | 154 ft | 97 kts | 350° |
| 2026-05-04 14:18 | 60.29972 | 5.21600 | 160 ft | 15 kts | 355° |
| 2026-05-04 14:19 | 60.30005 | 5.21915 | 156 ft | 18 kts | 161° |
| 2026-05-04 14:19 | 60.29872 | 5.21960 | 152 ft | 20 kts | 171° |
| 2026-05-04 14:19 | 60.29730 | 5.22009 | 147 ft | 22 kts | 170° |
| 2026-05-04 14:19 | 60.29584 | 5.22058 | 149 ft | 21 kts | 171° |
| 2026-05-04 14:20 | 60.29442 | 5.22105 | 156 ft | 20 kts | 171° |
| 2026-05-04 14:20 | 60.29305 | 5.22153 | 161 ft | 20 kts | 171° |
| 2026-05-04 14:20 | 60.29170 | 5.22197 | 162 ft | 20 kts | 171° |
| 2026-05-04 14:21 | 60.28903 | 5.22288 | 161 ft | 19 kts | 170° |
| 2026-05-04 14:21 | 60.28788 | 5.22327 | 161 ft | 11 kts | 170° |
| 2026-05-04 14:21 | 60.28715 | 5.22354 | 163 ft | 6 kts | 169° |
| 2026-05-04 14:21 | 60.28713 | 5.22354 | 163 ft | 0 kts | 170° |
| 2026-05-04 14:22 | 60.28703 | 5.22360 | 163 ft | 7 kts | 159° |
| 2026-05-04 14:22 | 60.28697 | 5.22474 | 165 ft | 10 kts | 64° |
| 2026-05-04 14:22 | 60.28715 | 5.22606 | 167 ft | 10 kts | 81° |
| 2026-05-04 14:22 | 60.28726 | 5.22738 | 170 ft | 9 kts | 80° |
| 2026-05-04 14:23 | 60.28739 | 5.22892 | 172 ft | 2 kts | 81° |
| 2026-05-04 14:23 | 60.28740 | 5.22903 | 172 ft | 0 kts | 81° |